sensor_id;sensor_type;location;lat;lon;timestamp;pressure;altitude;pressure_sealevel;temperature;humidity
3796;BME280;1913;50.660;7.834;2023-05-10T00:02:24;150832.19;;;11.30;100.00
3796;BME280;1913;50.660;7.834;2023-05-10T00:04:50;150803.28;;;11.18;100.00
3796;BME280;1913;50.660;7.834;2023-05-10T00:07:15;150837.22;;;11.32;100.00
3796;BME280;1913;50.660;7.834;2023-05-10T00:09:43;150827.13;;;11.27;100.00
3796;BME280;1913;50.660;7.834;2023-05-10T00:12:08;150842.22;;;11.34;100.00
3796;BME280;1913;50.660;7.834;2023-05-10T00:14:34;150823.38;;;11.26;100.00
3796;BME280;1913;50.660;7.834;2023-05-10T00:16:59;150847.28;;;11.36;100.00
3796;BME280;1913;50.660;7.834;2023-05-10T00:19:25;150828.44;;;11.28;100.00
3796;BME280;1913;50.660;7.834;2023-05-10T00:21:50;150815.81;;;11.23;100.00
3796;BME280;1913;50.660;7.834;2023-05-10T00:24:16;150824.63;;;11.26;100.00
3796;BME280;1913;50.660;7.834;2023-05-10T00:26:41;150809.53;;;11.20;100.00
3796;BME280;1913;50.660;7.834;2023-05-10T00:29:07;150830.94;;;11.29;100.00
3796;BME280;1913;50.660;7.834;2023-05-10T00:31:32;150799.47;;;11.16;100.00
3796;BME280;1913;50.660;7.834;2023-05-10T00:33:58;150783.13;;;11.10;100.00
3796;BME280;1913;50.660;7.834;2023-05-10T00:36:23;150799.47;;;11.16;100.00
3796;BME280;1913;50.660;7.834;2023-05-10T00:38:48;150778.13;;;11.08;100.00
3796;BME280;1913;50.660;7.834;2023-05-10T00:41:14;150798.22;;;11.16;100.00
3796;BME280;1913;50.660;7.834;2023-05-10T00:43:39;150763.03;;;11.01;100.00
3796;BME280;1913;50.660;7.834;2023-05-10T00:46:05;150754.22;;;10.98;100.00
3796;BME280;1913;50.660;7.834;2023-05-10T00:48:31;150779.38;;;11.08;100.00
3796;BME280;1913;50.660;7.834;2023-05-10T00:50:56;150790.69;;;11.13;100.00
3796;BME280;1913;50.660;7.834;2023-05-10T00:53:22;150783.13;;;11.10;100.00
3796;BME280;1913;50.660;7.834;2023-05-10T00:55:47;150776.88;;;11.07;100.00
3796;BME280;1913;50.660;7.834;2023-05-10T00:58:13;150779.38;;;11.08;100.00
3796;BME280;1913;50.660;7.834;2023-05-10T01:00:41;150773.09;;;11.06;100.00
3796;BME280;1913;50.660;7.834;2023-05-10T01:03:07;150773.09;;;11.06;100.00
3796;BME280;1913;50.660;7.834;2023-05-10T01:05:32;150764.28;;;11.02;100.00
3796;BME280;1913;50.660;7.834;2023-05-10T01:07:57;150768.09;;;11.03;100.00
3796;BME280;1913;50.660;7.834;2023-05-10T01:10:23;150775.63;;;11.07;100.00
3796;BME280;1913;50.660;7.834;2023-05-10T01:12:49;150774.34;;;11.06;100.00
3796;BME280;1913;50.660;7.834;2023-05-10T01:15:15;150760.53;;;11.00;100.00
3796;BME280;1913;50.660;7.834;2023-05-10T01:17:43;150775.63;;;11.07;100.00
3796;BME280;1913;50.660;7.834;2023-05-10T01:20:10;150780.63;;;11.09;100.00
3796;BME280;1913;50.660;7.834;2023-05-10T01:23:10;150778.13;;;11.08;100.00
3796;BME280;1913;50.660;7.834;2023-05-10T01:25:49;150765.53;;;11.02;100.00
3796;BME280;1913;50.660;7.834;2023-05-10T01:28:39;150756.75;;;10.99;100.00
3796;BME280;1913;50.660;7.834;2023-05-10T01:31:30;150763.03;;;11.01;100.00
3796;BME280;1913;50.660;7.834;2023-05-10T01:34:23;150745.44;;;10.94;100.00
3796;BME280;1913;50.660;7.834;2023-05-10T01:37:21;150749.25;;;10.96;100.00
3796;BME280;1913;50.660;7.834;2023-05-10T01:39:58;150758.03;;;10.99;100.00
3796;BME280;1913;50.660;7.834;2023-05-10T01:42:33;150764.28;;;11.02;100.00
3796;BME280;1913;50.660;7.834;2023-05-10T01:45:11;150752.97;;;10.97;100.00
3796;BME280;1913;50.660;7.834;2023-05-10T01:47:44;150779.38;;;11.08;100.00
3796;BME280;1913;50.660;7.834;2023-05-10T01:50:30;150763.03;;;11.01;100.00
3796;BME280;1913;50.660;7.834;2023-05-10T01:52:58;150732.88;;;10.89;100.00
3796;BME280;1913;50.660;7.834;2023-05-10T01:55:27;150749.25;;;10.96;100.00
3796;BME280;1913;50.660;7.834;2023-05-10T01:58:02;150740.44;;;10.92;100.00
3796;BME280;1913;50.660;7.834;2023-05-10T02:00:29;150741.69;;;10.93;100.00
3796;BME280;1913;50.660;7.834;2023-05-10T02:02:55;150760.53;;;11.00;100.00
3796;BME280;1913;50.660;7.834;2023-05-10T02:05:21;150735.38;;;10.90;100.00
3796;BME280;1913;50.660;7.834;2023-05-10T02:07:49;150724.09;;;10.86;100.00
3796;BME280;1913;50.660;7.834;2023-05-10T02:10:15;150732.88;;;10.89;100.00
3796;BME280;1913;50.660;7.834;2023-05-10T02:12:43;150724.09;;;10.86;100.00
3796;BME280;1913;50.660;7.834;2023-05-10T02:15:11;150726.59;;;10.87;100.00
3796;BME280;1913;50.660;7.834;2023-05-10T02:17:38;150729.09;;;10.88;100.00
3796;BME280;1913;50.660;7.834;2023-05-10T02:20:06;150739.16;;;10.92;100.00
3796;BME280;1913;50.660;7.834;2023-05-10T02:22:32;150752.97;;;10.97;100.00
3796;BME280;1913;50.660;7.834;2023-05-10T02:24:59;150715.28;;;10.82;100.00
3796;BME280;1913;50.660;7.834;2023-05-10T02:27:27;150774.34;;;11.06;100.00
3796;BME280;1913;50.660;7.834;2023-05-10T02:29:53;150752.97;;;10.97;100.00
3796;BME280;1913;50.660;7.834;2023-05-10T02:32:21;150746.69;;;10.95;100.00
3796;BME280;1913;50.660;7.834;2023-05-10T02:34:47;150752.97;;;10.97;100.00
3796;BME280;1913;50.660;7.834;2023-05-10T02:37:18;150768.09;;;11.03;100.00
3796;BME280;1913;50.660;7.834;2023-05-10T02:39:49;150773.09;;;11.06;100.00
3796;BME280;1913;50.660;7.834;2023-05-10T02:42:17;150771.84;;;11.05;100.00
3796;BME280;1913;50.660;7.834;2023-05-10T02:44:46;150794.47;;;11.14;100.00
3796;BME280;1913;50.660;7.834;2023-05-10T02:47:13;150745.44;;;10.94;100.00
3796;BME280;1913;50.660;7.834;2023-05-10T02:49:38;150766.84;;;11.03;100.00
3796;BME280;1913;50.660;7.834;2023-05-10T02:52:05;150771.84;;;11.05;100.00
3796;BME280;1913;50.660;7.834;2023-05-10T02:54:44;150775.63;;;11.07;100.00
3796;BME280;1913;50.660;7.834;2023-05-10T02:57:15;150788.19;;;11.12;100.00
3796;BME280;1913;50.660;7.834;2023-05-10T02:59:44;150752.97;;;10.97;100.00
3796;BME280;1913;50.660;7.834;2023-05-10T03:02:12;150785.69;;;11.11;100.00
3796;BME280;1913;50.660;7.834;2023-05-10T03:04:37;150791.94;;;11.13;100.00
3796;BME280;1913;50.660;7.834;2023-05-10T03:07:03;150760.53;;;11.00;100.00
3796;BME280;1913;50.660;7.834;2023-05-10T03:09:30;150765.53;;;11.02;100.00
3796;BME280;1913;50.660;7.834;2023-05-10T03:12:09;150763.03;;;11.01;100.00
3796;BME280;1913;50.660;7.834;2023-05-10T03:17:22;150794.47;;;11.14;100.00
3796;BME280;1913;50.660;7.834;2023-05-10T03:19:56;150785.69;;;11.11;100.00
3796;BME280;1913;50.660;7.834;2023-05-10T03:22:47;150783.13;;;11.10;100.00
3796;BME280;1913;50.660;7.834;2023-05-10T03:25:16;150761.78;;;11.01;100.00
3796;BME280;1913;50.660;7.834;2023-05-10T03:27:43;150732.88;;;10.89;100.00
3796;BME280;1913;50.660;7.834;2023-05-10T03:30:12;150744.19;;;10.94;100.00
3796;BME280;1913;50.660;7.834;2023-05-10T03:32:37;150745.44;;;10.94;100.00
3796;BME280;1913;50.660;7.834;2023-05-10T03:35:07;150726.59;;;10.87;100.00
3796;BME280;1913;50.660;7.834;2023-05-10T03:37:33;150742.94;;;10.93;100.00
3796;BME280;1913;50.660;7.834;2023-05-10T03:39:59;150754.22;;;10.98;100.00
3796;BME280;1913;50.660;7.834;2023-05-10T03:42:24;150750.50;;;10.96;100.00
3796;BME280;1913;50.660;7.834;2023-05-10T03:44:50;150746.69;;;10.95;100.00
3796;BME280;1913;50.660;7.834;2023-05-10T03:47:15;150729.09;;;10.88;100.00
3796;BME280;1913;50.660;7.834;2023-05-10T03:49:41;150714.03;;;10.82;100.00
3796;BME280;1913;50.660;7.834;2023-05-10T03:52:06;150727.84;;;10.87;100.00
3796;BME280;1913;50.660;7.834;2023-05-10T03:54:32;150737.88;;;10.91;100.00
3796;BME280;1913;50.660;7.834;2023-05-10T03:56:57;150750.50;;;10.96;100.00
3796;BME280;1913;50.660;7.834;2023-05-10T03:59:22;150730.34;;;10.88;100.00
3796;BME280;1913;50.660;7.834;2023-05-10T04:01:48;150710.25;;;10.80;100.00
3796;BME280;1913;50.660;7.834;2023-05-10T04:04:13;150722.84;;;10.85;100.00
3796;BME280;1913;50.660;7.834;2023-05-10T04:06:38;150706.50;;;10.78;100.00
3796;BME280;1913;50.660;7.834;2023-05-10T04:09:04;150710.25;;;10.80;100.00
3796;BME280;1913;50.660;7.834;2023-05-10T04:11:29;150719.03;;;10.84;100.00
3796;BME280;1913;50.660;7.834;2023-05-10T04:14:15;150715.28;;;10.82;100.00
3796;BME280;1913;50.660;7.834;2023-05-10T04:17:01;150696.44;;;10.74;100.00
3796;BME280;1913;50.660;7.834;2023-05-10T04:19:46;150710.25;;;10.80;100.00
3796;BME280;1913;50.660;7.834;2023-05-10T04:22:32;150709.00;;;10.79;100.00
3796;BME280;1913;50.660;7.834;2023-05-10T04:25:17;150722.84;;;10.85;100.00
3796;BME280;1913;50.660;7.834;2023-05-10T04:28:03;150691.41;;;10.72;100.00
3796;BME280;1913;50.660;7.834;2023-05-10T04:30:48;150687.66;;;10.71;100.00
3796;BME280;1913;50.660;7.834;2023-05-10T04:33:34;150703.94;;;10.77;100.00
3796;BME280;1913;50.660;7.834;2023-05-10T04:35:59;150712.75;;;10.81;100.00
3796;BME280;1913;50.660;7.834;2023-05-10T04:38:28;150727.84;;;10.87;100.00
3796;BME280;1913;50.660;7.834;2023-05-10T04:40:54;150761.78;;;11.01;100.00
3796;BME280;1913;50.660;7.834;2023-05-10T04:43:28;150768.09;;;11.03;100.00
3796;BME280;1913;50.660;7.834;2023-05-10T04:45:56;150758.03;;;10.99;100.00
3796;BME280;1913;50.660;7.834;2023-05-10T04:48:21;150745.44;;;10.94;100.00
3796;BME280;1913;50.660;7.834;2023-05-10T04:50:47;150778.13;;;11.08;100.00
3796;BME280;1913;50.660;7.834;2023-05-10T04:53:12;150778.13;;;11.08;100.00
3796;BME280;1913;50.660;7.834;2023-05-10T04:55:38;150781.88;;;11.09;100.00
3796;BME280;1913;50.660;7.834;2023-05-10T04:58:03;150773.09;;;11.06;100.00
3796;BME280;1913;50.660;7.834;2023-05-10T05:00:28;150768.09;;;11.03;100.00
3796;BME280;1913;50.660;7.834;2023-05-10T05:02:54;150761.78;;;11.01;100.00
3796;BME280;1913;50.660;7.834;2023-05-10T05:05:19;150742.94;;;10.93;100.00
3796;BME280;1913;50.660;7.834;2023-05-10T05:07:45;150755.50;;;10.98;100.00
3796;BME280;1913;50.660;7.834;2023-05-10T05:10:10;150793.22;;;11.14;100.00
3796;BME280;1913;50.660;7.834;2023-05-10T05:12:36;150781.88;;;11.09;100.00
3796;BME280;1913;50.660;7.834;2023-05-10T05:15:01;150805.78;;;11.19;100.00
3796;BME280;1913;50.660;7.834;2023-05-10T05:17:27;150793.22;;;11.14;100.00
3796;BME280;1913;50.660;7.834;2023-05-10T05:19:53;150796.97;;;11.15;100.00
3796;BME280;1913;50.660;7.834;2023-05-10T05:22:18;150800.72;;;11.17;100.00
3796;BME280;1913;50.660;7.834;2023-05-10T05:24:45;150844.72;;;11.35;100.00
3796;BME280;1913;50.660;7.834;2023-05-10T05:27:11;150830.94;;;11.29;100.00
3796;BME280;1913;50.660;7.834;2023-05-10T05:29:36;150833.44;;;11.30;100.00
3796;BME280;1913;50.660;7.834;2023-05-10T05:32:02;150861.06;;;11.41;100.00
3796;BME280;1913;50.660;7.834;2023-05-10T05:34:29;150881.22;;;11.49;100.00
3796;BME280;1913;50.660;7.834;2023-05-10T05:36:54;150847.28;;;11.36;100.00
3796;BME280;1913;50.660;7.834;2023-05-10T05:39:20;150874.94;;;11.47;100.00
3796;BME280;1913;50.660;7.834;2023-05-10T05:41:46;150874.94;;;11.47;100.00
3796;BME280;1913;50.660;7.834;2023-05-10T05:44:11;150879.94;;;11.49;100.00
3796;BME280;1913;50.660;7.834;2023-05-10T05:46:37;150888.78;;;11.53;100.00
3796;BME280;1913;50.660;7.834;2023-05-10T05:49:03;150926.50;;;11.68;100.00
3796;BME280;1913;50.660;7.834;2023-05-10T05:51:28;150924.00;;;11.67;100.00
3796;BME280;1913;50.660;7.834;2023-05-10T05:53:55;150944.09;;;11.75;100.00
3796;BME280;1913;50.660;7.834;2023-05-10T05:56:20;150944.09;;;11.75;100.00
3796;BME280;1913;50.660;7.834;2023-05-10T05:58:52;150898.84;;;11.57;100.00
3796;BME280;1913;50.660;7.834;2023-05-10T06:01:18;150927.75;;;11.68;100.00
3796;BME280;1913;50.660;7.834;2023-05-10T06:03:50;150960.44;;;11.82;100.00
3796;BME280;1913;50.660;7.834;2023-05-10T06:06:34;150961.69;;;11.82;100.00
3796;BME280;1913;50.660;7.834;2023-05-10T06:09:19;150955.41;;;11.80;100.00
3796;BME280;1913;50.660;7.834;2023-05-10T06:12:05;150913.88;;;11.63;100.00
3796;BME280;1913;50.660;7.834;2023-05-10T06:14:50;150937.78;;;11.72;100.00
3796;BME280;1913;50.660;7.834;2023-05-10T06:17:36;150950.41;;;11.78;100.00
3796;BME280;1913;50.660;7.834;2023-05-10T06:20:01;150970.56;;;11.86;100.00
3796;BME280;1913;50.660;7.834;2023-05-10T06:22:27;150961.69;;;11.82;100.00
3796;BME280;1913;50.660;7.834;2023-05-10T06:24:52;150957.91;;;11.81;100.00
3796;BME280;1913;50.660;7.834;2023-05-10T06:27:18;150960.44;;;11.82;100.00
3796;BME280;1913;50.660;7.834;2023-05-10T06:29:43;150986.91;;;11.92;100.00
3796;BME280;1913;50.660;7.834;2023-05-10T06:32:08;150964.19;;;11.83;100.00
3796;BME280;1913;50.660;7.834;2023-05-10T06:34:34;150954.16;;;11.79;100.00
3796;BME280;1913;50.660;7.834;2023-05-10T06:36:59;150954.16;;;11.79;100.00
3796;BME280;1913;50.660;7.834;2023-05-10T06:39:25;150946.59;;;11.76;100.00
3796;BME280;1913;50.660;7.834;2023-05-10T06:41:50;150959.19;;;11.81;100.00
3796;BME280;1913;50.660;7.834;2023-05-10T06:44:15;150946.59;;;11.76;100.00
3796;BME280;1913;50.660;7.834;2023-05-10T06:46:41;150926.50;;;11.68;100.00
3796;BME280;1913;50.660;7.834;2023-05-10T06:49:06;150935.28;;;11.71;100.00
3796;BME280;1913;50.660;7.834;2023-05-10T06:51:32;150941.59;;;11.74;100.00
3796;BME280;1913;50.660;7.834;2023-05-10T06:53:58;150950.41;;;11.78;100.00
3796;BME280;1913;50.660;7.834;2023-05-10T06:56:23;150964.19;;;11.83;100.00
3796;BME280;1913;50.660;7.834;2023-05-10T06:58:48;150983.09;;;11.91;100.00
3796;BME280;1913;50.660;7.834;2023-05-10T07:01:14;150961.69;;;11.82;100.00
3796;BME280;1913;50.660;7.834;2023-05-10T07:03:39;150949.09;;;11.77;100.00
3796;BME280;1913;50.660;7.834;2023-05-10T07:06:05;150952.91;;;11.79;100.00
3796;BME280;1913;50.660;7.834;2023-05-10T07:08:33;150952.91;;;11.79;100.00
3796;BME280;1913;50.660;7.834;2023-05-10T07:11:00;150955.41;;;11.80;100.00
3796;BME280;1913;50.660;7.834;2023-05-10T07:13:26;150955.41;;;11.80;100.00
3796;BME280;1913;50.660;7.834;2023-05-10T07:15:51;150955.41;;;11.80;100.00
3796;BME280;1913;50.660;7.834;2023-05-10T07:18:16;150960.44;;;11.82;100.00
3796;BME280;1913;50.660;7.834;2023-05-10T07:20:42;150949.09;;;11.77;100.00
3796;BME280;1913;50.660;7.834;2023-05-10T07:23:07;150965.50;;;11.84;100.00
3796;BME280;1913;50.660;7.834;2023-05-10T07:25:33;150945.34;;;11.75;100.00
3796;BME280;1913;50.660;7.834;2023-05-10T07:27:59;150971.81;;;11.86;100.00
3796;BME280;1913;50.660;7.834;2023-05-10T07:30:24;151018.31;;;12.05;100.00
3796;BME280;1913;50.660;7.834;2023-05-10T07:32:50;151039.72;;;12.14;100.00
3796;BME280;1913;50.660;7.834;2023-05-10T07:35:15;151062.34;;;12.23;100.00
3796;BME280;1913;50.660;7.834;2023-05-10T07:37:41;151081.22;;;12.31;100.00
3796;BME280;1913;50.660;7.834;2023-05-10T07:40:07;151113.94;;;12.44;100.00
3796;BME280;1913;50.660;7.834;2023-05-10T07:42:33;151073.69;;;12.28;100.00
3796;BME280;1913;50.660;7.834;2023-05-10T07:44:58;151098.81;;;12.38;100.00
3796;BME280;1913;50.660;7.834;2023-05-10T07:47:43;151127.78;;;12.50;100.00
3796;BME280;1913;50.660;7.834;2023-05-10T07:50:12;151165.53;;;12.65;100.00
3796;BME280;1913;50.660;7.834;2023-05-10T07:52:43;151281.28;;;13.12;100.00
3796;BME280;1913;50.660;7.834;2023-05-10T07:55:28;151275.03;;;13.09;100.00
3796;BME280;1913;50.660;7.834;2023-05-10T07:57:54;151282.56;;;13.12;100.00
3796;BME280;1913;50.660;7.834;2023-05-10T08:00:20;151269.97;;;13.07;100.00
3796;BME280;1913;50.660;7.834;2023-05-10T08:02:46;151278.78;;;13.11;100.00
3796;BME280;1913;50.660;7.834;2023-05-10T08:05:11;151308.97;;;13.23;100.00
3796;BME280;1913;50.660;7.834;2023-05-10T08:07:37;151307.72;;;13.23;100.00
3796;BME280;1913;50.660;7.834;2023-05-10T08:10:03;151252.38;;;13.00;100.00
3796;BME280;1913;50.660;7.834;2023-05-10T08:12:28;151286.34;;;13.14;100.00
3796;BME280;1913;50.660;7.834;2023-05-10T08:14:54;151327.97;;;13.31;100.00
3796;BME280;1913;50.660;7.834;2023-05-10T08:17:19;151301.47;;;13.20;100.00
3796;BME280;1913;50.660;7.834;2023-05-10T08:19:44;151339.28;;;13.35;100.00
3796;BME280;1913;50.660;7.834;2023-05-10T08:22:10;151393.41;;;13.57;100.00
3796;BME280;1913;50.660;7.834;2023-05-10T08:24:35;151355.63;;;13.42;100.00
3796;BME280;1913;50.660;7.834;2023-05-10T08:27:05;151312.84;;;13.25;100.00
3796;BME280;1913;50.660;7.834;2023-05-10T08:29:30;151343.03;;;13.37;100.00
3796;BME280;1913;50.660;7.834;2023-05-10T08:31:56;151277.53;;;13.10;100.00
3796;BME280;1913;50.660;7.834;2023-05-10T08:34:21;151223.44;;;12.88;100.00
3796;BME280;1913;50.660;7.834;2023-05-10T08:36:46;151175.59;;;12.69;100.00
3796;BME280;1913;50.660;7.834;2023-05-10T08:39:12;151175.59;;;12.69;100.00
3796;BME280;1913;50.660;7.834;2023-05-10T08:41:37;151241.06;;;12.96;100.00
3796;BME280;1913;50.660;7.834;2023-05-10T08:44:04;151293.91;;;13.17;100.00
3796;BME280;1913;50.660;7.834;2023-05-10T08:46:33;151324.16;;;13.29;100.00
3796;BME280;1913;50.660;7.834;2023-05-10T08:49:06;151379.53;;;13.52;100.00
3796;BME280;1913;50.660;7.834;2023-05-10T08:51:35;151452.59;;;13.81;100.00
3796;BME280;1913;50.660;7.834;2023-05-10T08:54:06;151599.97;;;14.41;100.00
3796;BME280;1913;50.660;7.834;2023-05-10T08:56:32;151495.41;;;13.99;100.00
3796;BME280;1913;50.660;7.834;2023-05-10T08:58:57;151544.50;;;14.19;100.00
3796;BME280;1913;50.660;7.834;2023-05-10T09:01:23;151482.78;;;13.94;100.00
3796;BME280;1913;50.660;7.834;2023-05-10T09:03:50;151388.34;;;13.55;100.00
3796;BME280;1913;50.660;7.834;2023-05-10T09:06:16;151338.03;;;13.35;100.00
3796;BME280;1913;50.660;7.834;2023-05-10T09:08:42;151306.47;;;13.22;100.00
3796;BME280;1913;50.660;7.834;2023-05-10T09:11:09;151282.56;;;13.12;100.00
3796;BME280;1913;50.660;7.834;2023-05-10T09:13:36;151253.63;;;13.01;100.00
3796;BME280;1913;50.660;7.834;2023-05-10T09:16:02;151213.38;;;12.84;100.00
3796;BME280;1913;50.660;7.834;2023-05-10T09:18:30;151184.41;;;12.73;100.00
3796;BME280;1913;50.660;7.834;2023-05-10T09:20:56;151203.25;;;12.80;100.00
3796;BME280;1913;50.660;7.834;2023-05-10T09:23:21;151176.84;;;12.69;100.00
3796;BME280;1913;50.660;7.834;2023-05-10T09:26:02;151106.38;;;12.41;100.00
3796;BME280;1913;50.660;7.834;2023-05-10T09:28:54;151149.16;;;12.58;100.00
3796;BME280;1913;50.660;7.834;2023-05-10T09:31:21;151125.25;;;12.49;100.00
3796;BME280;1913;50.660;7.834;2023-05-10T09:34:06;151103.88;;;12.40;100.00
3796;BME280;1913;50.660;7.834;2023-05-10T09:36:56;151144.16;;;12.56;100.00
3796;BME280;1913;50.660;7.834;2023-05-10T09:39:42;151154.22;;;12.60;100.00
3796;BME280;1913;50.660;7.834;2023-05-10T09:42:27;151186.94;;;12.74;100.00
3796;BME280;1913;50.660;7.834;2023-05-10T09:44:53;151236.00;;;12.93;100.00
3796;BME280;1913;50.660;7.834;2023-05-10T09:47:18;151330.47;;;13.32;100.00
3796;BME280;1913;50.660;7.834;2023-05-10T09:49:48;151314.09;;;13.25;100.00
3796;BME280;1913;50.660;7.834;2023-05-10T09:52:14;151360.66;;;13.44;100.00
3796;BME280;1913;50.660;7.834;2023-05-10T09:54:45;151316.59;;;13.26;100.00
3796;BME280;1913;50.660;7.834;2023-05-10T09:57:21;151295.16;;;13.17;100.00
3796;BME280;1913;50.660;7.834;2023-05-10T09:59:47;151195.75;;;12.77;100.00
3796;BME280;1913;50.660;7.834;2023-05-10T10:02:13;151175.59;;;12.69;100.00
3796;BME280;1913;50.660;7.834;2023-05-10T10:04:39;151178.13;;;12.70;100.00
3796;BME280;1913;50.660;7.834;2023-05-10T10:07:05;151174.34;;;12.68;100.00
3796;BME280;1913;50.660;7.834;2023-05-10T10:09:32;151197.00;;;12.78;100.00
3796;BME280;1913;50.660;7.834;2023-05-10T10:11:59;151205.81;;;12.81;100.00
3796;BME280;1913;50.660;7.834;2023-05-10T10:14:25;151231.00;;;12.91;100.00
3796;BME280;1913;50.660;7.834;2023-05-10T10:16:50;151266.22;;;13.06;100.00
3796;BME280;1913;50.660;7.834;2023-05-10T10:19:18;151329.22;;;13.31;100.00
3796;BME280;1913;50.660;7.834;2023-05-10T10:21:43;151368.22;;;13.47;100.00
3796;BME280;1913;50.660;7.834;2023-05-10T10:24:09;151439.97;;;13.76;100.00
3796;BME280;1913;50.660;7.834;2023-05-10T10:26:35;151384.59;;;13.54;100.00
3796;BME280;1913;50.660;7.834;2023-05-10T10:29:16;151409.78;;;13.64;100.00
3796;BME280;1913;50.660;7.834;2023-05-10T10:32:09;151408.53;;;13.63;100.00
3796;BME280;1913;50.660;7.834;2023-05-10T10:34:38;151353.09;;;13.41;100.00
3796;BME280;1913;50.660;7.834;2023-05-10T10:37:05;151253.63;;;13.01;100.00
3796;BME280;1913;50.660;7.834;2023-05-10T10:39:31;151231.00;;;12.91;100.00
3796;BME280;1913;50.660;7.834;2023-05-10T10:41:58;150994.47;;;11.95;100.00
3796;BME280;1913;50.660;7.834;2023-05-10T10:47:21;150794.47;;;11.14;100.00
3796;BME280;1913;50.660;7.834;2023-05-10T10:50:12;150731.66;;;10.89;100.00
3796;BME280;1913;50.660;7.834;2023-05-10T10:52:42;150778.13;;;11.08;100.00
3796;BME280;1913;50.660;7.834;2023-05-10T10:55:12;150761.78;;;11.01;100.00
3796;BME280;1913;50.660;7.834;2023-05-10T10:57:54;150749.25;;;10.96;100.00
3796;BME280;1913;50.660;7.834;2023-05-10T11:00:31;150759.28;;;11.00;100.00
3796;BME280;1913;50.660;7.834;2023-05-10T11:03:06;150805.78;;;11.19;100.00
3796;BME280;1913;50.660;7.834;2023-05-10T11:05:33;150868.63;;;11.44;100.00
3796;BME280;1913;50.660;7.834;2023-05-10T11:08:14;150906.38;;;11.60;100.00
3796;BME280;1913;50.660;7.834;2023-05-10T11:10:50;150911.38;;;11.62;100.00
3796;BME280;1913;50.660;7.834;2023-05-10T11:13:45;150980.59;;;11.90;100.00
3796;BME280;1913;50.660;7.834;2023-05-10T11:16:41;151077.47;;;12.29;100.00
3796;BME280;1913;50.660;7.834;2023-05-10T11:19:27;151111.44;;;12.43;100.00
3796;BME280;1913;50.660;7.834;2023-05-10T11:24:36;151119.00;;;12.46;100.00
3796;BME280;1913;50.660;7.834;2023-05-10T11:27:22;151115.19;;;12.44;100.00
3796;BME280;1913;50.660;7.834;2023-05-10T11:29:51;151165.53;;;12.65;100.00
3796;BME280;1913;50.660;7.834;2023-05-10T11:32:17;151181.88;;;12.72;100.00
3796;BME280;1913;50.660;7.834;2023-05-10T11:34:47;151224.69;;;12.89;100.00
3796;BME280;1913;50.660;7.834;2023-05-10T11:37:13;151253.63;;;13.01;100.00
3796;BME280;1913;50.660;7.834;2023-05-10T11:39:38;151325.41;;;13.30;100.00
3796;BME280;1913;50.660;7.834;2023-05-10T11:42:04;151317.84;;;13.27;100.00
3796;BME280;1913;50.660;7.834;2023-05-10T11:44:32;151384.59;;;13.54;100.00
3796;BME280;1913;50.660;7.834;2023-05-10T11:46:59;151361.91;;;13.45;100.00
3796;BME280;1913;50.660;7.834;2023-05-10T11:49:25;151404.72;;;13.62;100.00
3796;BME280;1913;50.660;7.834;2023-05-10T11:51:51;151445.03;;;13.78;100.00
3796;BME280;1913;50.660;7.834;2023-05-10T11:54:16;151497.91;;;14.00;100.00
3796;BME280;1913;50.660;7.834;2023-05-10T11:56:41;151565.94;;;14.27;100.00
3796;BME280;1913;50.660;7.834;2023-05-10T11:59:07;151584.84;;;14.35;100.00
3796;BME280;1913;50.660;7.834;2023-05-10T12:01:33;151665.50;;;14.68;100.00
3796;BME280;1913;50.660;7.834;2023-05-10T12:04:00;151744.91;;;15.00;100.00
3796;BME280;1913;50.660;7.834;2023-05-10T12:06:27;151828.09;;;15.33;100.00
3796;BME280;1913;50.660;7.834;2023-05-10T12:08:54;151928.97;;;15.74;100.00
3796;BME280;1913;50.660;7.834;2023-05-10T12:11:19;151903.72;;;15.64;100.00
3796;BME280;1913;50.660;7.834;2023-05-10T12:13:47;151988.25;;;15.98;100.00
3796;BME280;1913;50.660;7.834;2023-05-10T12:16:33;152024.81;;;16.13;100.00
3796;BME280;1913;50.660;7.834;2023-05-10T12:19:00;152009.69;;;16.07;100.00
3796;BME280;1913;50.660;7.834;2023-05-10T12:21:27;152008.41;;;16.07;100.00
3796;BME280;1913;50.660;7.834;2023-05-10T12:23:54;151954.19;;;15.85;100.00
3796;BME280;1913;50.660;7.834;2023-05-10T12:26:25;151956.72;;;15.86;100.00
3796;BME280;1913;50.660;7.834;2023-05-10T12:29:11;151858.34;;;15.46;100.00
3796;BME280;1913;50.660;7.834;2023-05-10T12:31:56;151874.72;;;15.52;100.00
3796;BME280;1913;50.660;7.834;2023-05-10T12:34:35;151926.47;;;15.73;100.00
3796;BME280;1913;50.660;7.834;2023-05-10T12:37:02;152033.66;;;16.17;100.00
3796;BME280;1913;50.660;7.834;2023-05-10T12:39:42;152118.16;;;16.51;100.00
3796;BME280;1913;50.660;7.834;2023-05-10T12:42:08;152143.38;;;16.61;100.00
3796;BME280;1913;50.660;7.834;2023-05-10T12:44:34;152089.13;;;16.39;100.00
3796;BME280;1913;50.660;7.834;2023-05-10T12:47:00;151974.38;;;15.93;100.00
3796;BME280;1913;50.660;7.834;2023-05-10T12:49:25;151848.25;;;15.42;100.00
3796;BME280;1913;50.660;7.834;2023-05-10T12:51:51;151709.59;;;14.85;100.00
3796;BME280;1913;50.660;7.834;2023-05-10T12:54:16;151613.78;;;14.47;100.00
3796;BME280;1913;50.660;7.834;2023-05-10T12:56:42;151528.13;;;14.12;100.00
3796;BME280;1913;50.660;7.834;2023-05-10T12:59:28;151457.59;;;13.83;100.00
3796;BME280;1913;50.660;7.834;2023-05-10T13:02:13;151366.97;;;13.47;100.00
3796;BME280;1913;50.660;7.834;2023-05-10T13:04:59;151334.22;;;13.33;100.00
3796;BME280;1913;50.660;7.834;2023-05-10T13:07:45;151350.59;;;13.40;100.00
3796;BME280;1913;50.660;7.834;2023-05-10T13:10:11;151327.97;;;13.31;100.00
3796;BME280;1913;50.660;7.834;2023-05-10T13:12:56;151348.09;;;13.39;100.00
3796;BME280;1913;50.660;7.834;2023-05-10T13:15:42;151336.75;;;13.34;100.00
3796;BME280;1913;50.660;7.834;2023-05-10T13:18:08;151341.78;;;13.36;100.00
3796;BME280;1913;50.660;7.834;2023-05-10T13:20:54;151365.72;;;13.46;100.00
3796;BME280;1913;50.660;7.834;2023-05-10T13:23:39;151403.47;;;13.61;100.00